createdAt,value
2023-04-19T00:00:15.988Z,21.97
2023-04-19T00:01:16.015Z,22.00
2023-04-19T00:02:16.167Z,22.02
2023-04-19T00:03:16.305Z,22.04
2023-04-19T00:04:16.725Z,22.05
2023-04-19T00:05:16.158Z,22.04
2023-04-19T00:06:16.140Z,22.06
2023-04-19T00:07:16.168Z,22.06
2023-04-19T00:08:16.186Z,22.06
2023-04-19T00:09:16.207Z,22.07
2023-04-19T00:10:16.237Z,22.07
2023-04-19T00:11:16.267Z,22.07
2023-04-19T00:12:16.303Z,22.07
2023-04-19T00:13:16.345Z,22.07
2023-04-19T00:14:16.680Z,22.07
2023-04-19T00:15:16.380Z,22.08
2023-04-19T00:16:16.445Z,22.07
2023-04-19T00:17:16.437Z,22.07
2023-04-19T00:18:16.472Z,22.07
2023-04-19T00:19:16.499Z,22.07
2023-04-19T00:20:16.532Z,22.08
2023-04-19T00:21:16.564Z,22.08
2023-04-19T00:22:16.614Z,22.07
2023-04-19T00:23:16.624Z,22.07
2023-04-19T00:24:16.775Z,22.07
2023-04-19T00:25:16.695Z,22.06
2023-04-19T00:26:16.733Z,22.07
2023-04-19T00:27:16.744Z,22.07
2023-04-19T00:28:16.792Z,22.07
2023-04-19T00:29:16.833Z,22.07
2023-04-19T00:30:16.821Z,22.07
2023-04-19T00:31:16.938Z,22.07
2023-04-19T00:32:16.881Z,22.06
2023-04-19T00:33:16.918Z,22.06
2023-04-19T00:34:17.067Z,22.07
2023-04-19T00:35:16.981Z,22.07
2023-04-19T00:36:17.026Z,22.07
2023-04-19T00:37:17.096Z,22.07
2023-04-19T00:38:17.067Z,22.07
2023-04-19T00:39:17.089Z,22.06
2023-04-19T00:40:17.128Z,22.07
2023-04-19T00:41:17.150Z,22.06
2023-04-19T00:42:17.277Z,22.06
2023-04-19T00:43:17.225Z,22.06
2023-04-19T00:44:17.423Z,22.06
2023-04-19T00:45:17.349Z,22.06
2023-04-19T00:46:17.343Z,22.06
2023-04-19T00:47:17.322Z,22.06
2023-04-19T00:48:17.359Z,22.06
2023-04-19T00:49:17.378Z,22.06
2023-04-19T00:50:17.426Z,22.05
2023-04-19T00:51:17.457Z,22.05
2023-04-19T00:52:17.561Z,22.05
2023-04-19T00:53:17.546Z,22.05
2023-04-19T00:54:17.704Z,22.06
2023-04-19T00:55:17.672Z,22.05
2023-04-19T00:56:17.762Z,22.06
2023-04-19T00:57:17.796Z,22.06
2023-04-19T00:58:17.883Z,22.06
2023-04-19T00:59:17.913Z,22.06
2023-04-19T01:00:18.941Z,22.05
2023-04-19T01:01:18.097Z,22.06
2023-04-19T01:02:18.129Z,22.06
2023-04-19T01:03:18.238Z,22.06
2023-04-19T01:04:18.564Z,22.05
2023-04-19T01:05:18.291Z,22.06
2023-04-19T01:06:19.252Z,22.05
2023-04-19T01:07:18.411Z,22.06
2023-04-19T01:08:18.474Z,22.06
2023-04-19T01:09:18.534Z,22.06
2023-04-19T01:10:18.645Z,22.05
2023-04-19T01:11:18.676Z,22.05
2023-04-19T01:12:18.747Z,22.06
2023-04-19T01:13:18.802Z,22.05
2023-04-19T01:14:18.875Z,22.06
2023-04-19T01:15:18.924Z,22.05
2023-04-19T01:16:19.022Z,22.05
2023-04-19T01:17:19.069Z,22.05
2023-04-19T01:18:19.115Z,22.05
2023-04-19T01:19:19.185Z,22.05
2023-04-19T01:20:19.245Z,22.05
2023-04-19T01:21:19.322Z,22.05
2023-04-19T01:22:19.383Z,22.05
2023-04-19T01:23:19.445Z,22.05
2023-04-19T01:24:19.498Z,22.05
2023-04-19T01:25:20.228Z,22.05
2023-04-19T01:26:19.626Z,22.05
2023-04-19T01:27:19.687Z,22.05
2023-04-19T01:28:19.715Z,22.05
2023-04-19T01:29:19.735Z,22.05
2023-04-19T01:30:19.774Z,22.04
2023-04-19T01:31:19.823Z,22.05
2023-04-19T01:32:19.832Z,22.05
2023-04-19T01:33:19.905Z,22.05
2023-04-19T01:34:19.910Z,22.06
2023-04-19T01:35:19.940Z,22.05
2023-04-19T01:36:19.970Z,22.04
2023-04-19T01:37:20.012Z,22.05
2023-04-19T01:38:20.045Z,22.04
2023-04-19T01:39:20.096Z,22.04
2023-04-19T01:40:20.115Z,22.04
2023-04-19T01:41:20.149Z,22.05
2023-04-19T01:42:20.202Z,22.04
2023-04-19T01:43:20.225Z,22.04
2023-04-19T01:44:20.283Z,22.04
2023-04-19T01:45:20.295Z,22.04
2023-04-19T01:46:20.341Z,22.04
2023-04-19T01:47:20.355Z,22.04
2023-04-19T01:48:20.404Z,22.04
2023-04-19T01:49:20.528Z,22.03
2023-04-19T01:50:20.511Z,22.03
2023-04-19T01:51:20.505Z,22.03
2023-04-19T01:52:20.542Z,22.03
2023-04-19T01:53:20.584Z,22.04
2023-04-19T01:54:20.622Z,22.04
2023-04-19T01:55:20.640Z,22.04
2023-04-19T01:56:20.681Z,22.03
2023-04-19T01:57:20.720Z,22.03
2023-04-19T01:58:20.754Z,22.03
2023-04-19T01:59:20.810Z,22.03
2023-04-19T02:00:20.831Z,22.03
2023-04-19T02:01:21.116Z,22.03
2023-04-19T02:02:21.189Z,22.04
2023-04-19T02:03:21.162Z,22.04
2023-04-19T02:04:21.367Z,22.03
2023-04-19T02:05:21.067Z,22.03
2023-04-19T02:06:21.093Z,22.03
2023-04-19T02:07:21.167Z,22.03
2023-04-19T02:08:21.239Z,22.03
2023-04-19T02:09:21.314Z,22.03
2023-04-19T02:10:21.384Z,22.03
2023-04-19T02:11:21.458Z,22.03
2023-04-19T02:12:21.509Z,22.03
2023-04-19T02:13:21.572Z,22.03
2023-04-19T02:14:21.655Z,22.03
2023-04-19T02:15:21.712Z,22.03
2023-04-19T02:16:21.831Z,22.03
2023-04-19T02:17:21.861Z,22.03
2023-04-19T02:18:21.908Z,22.02
2023-04-19T02:19:21.978Z,22.03
2023-04-19T02:20:22.048Z,22.02
2023-04-19T02:21:22.142Z,22.02
2023-04-19T02:22:22.183Z,22.02
2023-04-19T02:23:22.262Z,22.02
2023-04-19T02:24:22.319Z,22.02
2023-04-19T02:25:22.396Z,22.02
2023-04-19T02:26:22.468Z,22.02
2023-04-19T02:27:22.534Z,22.03
2023-04-19T02:28:22.597Z,22.02
2023-04-19T02:29:22.657Z,22.03
2023-04-19T02:30:22.728Z,22.02
2023-04-19T02:31:22.842Z,22.02
2023-04-19T02:32:22.892Z,22.02
2023-04-19T02:33:22.928Z,22.02
2023-04-19T02:34:22.996Z,22.02
2023-04-19T02:35:23.090Z,22.02
2023-04-19T02:36:23.137Z,22.02
2023-04-19T02:37:23.229Z,22.02
2023-04-19T02:38:23.286Z,22.02
2023-04-19T02:39:23.334Z,22.02
2023-04-19T02:40:23.413Z,22.02
2023-04-19T02:41:23.476Z,22.02
2023-04-19T02:42:23.551Z,22.02
2023-04-19T02:43:23.619Z,22.01
2023-04-19T02:44:23.675Z,22.01
2023-04-19T02:45:23.739Z,22.02
2023-04-19T02:46:23.844Z,22.01
2023-04-19T02:47:23.912Z,22.01
2023-04-19T02:48:23.952Z,22.01
2023-04-19T02:49:24.631Z,22.01
2023-04-19T02:50:24.094Z,22.01
2023-04-19T02:51:24.155Z,22.01
2023-04-19T02:52:24.216Z,22.00
2023-04-19T02:53:24.315Z,22.01
2023-04-19T02:54:24.366Z,22.00
2023-04-19T02:55:24.413Z,22.01
2023-04-19T02:56:24.469Z,22.01
2023-04-19T02:57:24.533Z,22.01
2023-04-19T02:58:24.616Z,22.00
2023-04-19T02:59:24.676Z,22.00
2023-04-19T03:00:24.746Z,22.01
2023-04-19T03:01:24.829Z,22.00
2023-04-19T03:02:24.934Z,22.00
2023-04-19T03:03:25.044Z,22.00
2023-04-19T03:04:25.079Z,22.00
2023-04-19T03:05:25.071Z,22.00
2023-04-19T03:06:25.142Z,22.00
2023-04-19T03:07:25.209Z,22.00
2023-04-19T03:08:25.262Z,22.00
2023-04-19T03:09:25.352Z,22.00
2023-04-19T03:10:25.395Z,22.00
2023-04-19T03:11:25.458Z,22.00
2023-04-19T03:12:25.514Z,22.00
2023-04-19T03:13:25.580Z,22.00
2023-04-19T03:14:25.654Z,22.00
2023-04-19T03:15:25.721Z,22.00
2023-04-19T03:16:25.788Z,22.00
2023-04-19T03:17:25.864Z,22.01
2023-04-19T03:18:25.911Z,22.00
2023-04-19T03:19:25.974Z,22.01
2023-04-19T03:20:26.050Z,22.02
2023-04-19T03:21:26.121Z,22.02
2023-04-19T03:22:26.184Z,22.02
2023-04-19T03:23:26.258Z,22.03
2023-04-19T03:24:26.315Z,22.04
2023-04-19T03:25:26.495Z,22.04
2023-04-19T03:26:26.693Z,22.05
2023-04-19T03:27:26.539Z,22.07
2023-04-19T03:28:26.603Z,22.07
2023-04-19T03:29:26.664Z,22.07
2023-04-19T03:30:26.752Z,22.09
2023-04-19T03:31:26.854Z,22.09
2023-04-19T03:32:26.882Z,22.10
2023-04-19T03:33:26.912Z,22.10
2023-04-19T03:34:26.992Z,22.11
2023-04-19T03:35:27.092Z,22.12
2023-04-19T03:36:27.208Z,22.12
2023-04-19T03:37:27.180Z,22.14
2023-04-19T03:38:27.231Z,22.14
2023-04-19T03:39:27.292Z,22.15
2023-04-19T03:40:27.349Z,22.15
2023-04-19T03:41:27.543Z,22.15
2023-04-19T03:42:29.046Z,22.16
2023-04-19T03:43:28.407Z,22.16
2023-04-19T03:44:27.469Z,22.17
2023-04-19T03:45:27.470Z,22.17
2023-04-19T03:46:27.516Z,22.19
2023-04-19T03:47:27.530Z,22.19
2023-04-19T03:48:27.468Z,22.20
2023-04-19T03:49:27.471Z,22.20
2023-04-19T03:50:27.478Z,22.22
2023-04-19T03:51:27.482Z,22.24
2023-04-19T03:52:27.474Z,22.23
2023-04-19T03:53:27.483Z,22.24
2023-04-19T03:54:27.478Z,22.25
2023-04-19T03:55:27.500Z,22.25
2023-04-19T03:56:27.495Z,22.26
2023-04-19T03:57:27.509Z,22.26
2023-04-19T03:58:27.492Z,22.28
2023-04-19T03:59:27.492Z,22.29
2023-04-19T04:00:27.519Z,22.29
2023-04-19T04:01:27.502Z,22.30
2023-04-19T04:02:27.742Z,22.31
2023-04-19T04:03:27.964Z,22.31
2023-04-19T04:04:27.951Z,22.31
2023-04-19T04:05:27.806Z,22.31
2023-04-19T04:06:27.724Z,22.31
2023-04-19T04:07:27.776Z,22.32
2023-04-19T04:08:27.825Z,22.31
2023-04-19T04:09:27.878Z,22.32
2023-04-19T04:10:27.947Z,22.32
2023-04-19T04:11:27.990Z,22.32
2023-04-19T04:12:28.043Z,22.32
2023-04-19T04:13:28.194Z,22.33
2023-04-19T04:14:28.155Z,22.32
2023-04-19T04:15:28.207Z,22.32
2023-04-19T04:16:28.447Z,22.33
2023-04-19T04:17:28.386Z,22.33
2023-04-19T04:18:28.362Z,22.33
2023-04-19T04:19:28.428Z,22.34
2023-04-19T04:20:28.491Z,22.35
2023-04-19T04:21:28.526Z,22.35
2023-04-19T04:22:28.574Z,22.35
2023-04-19T04:23:28.622Z,22.35
2023-04-19T04:24:28.658Z,22.35
2023-04-19T04:25:28.710Z,22.35
2023-04-19T04:26:28.749Z,22.35
2023-04-19T04:27:28.790Z,22.36
2023-04-19T04:28:28.842Z,22.36
2023-04-19T04:29:28.930Z,22.36
2023-04-19T04:30:28.922Z,22.36
2023-04-19T04:31:28.999Z,22.36
2023-04-19T04:32:29.043Z,22.37
2023-04-19T04:33:29.071Z,22.37
2023-04-19T04:34:29.101Z,22.37
2023-04-19T04:35:29.144Z,22.39
2023-04-19T04:36:29.193Z,22.38
2023-04-19T04:37:29.245Z,22.39
2023-04-19T04:38:29.282Z,22.38
2023-04-19T04:39:29.321Z,22.39
2023-04-19T04:40:29.372Z,22.39
2023-04-19T04:41:29.406Z,22.39
2023-04-19T04:42:29.452Z,22.39
2023-04-19T04:43:29.495Z,22.39
2023-04-19T04:44:29.536Z,22.39
2023-04-19T04:45:29.634Z,22.40
2023-04-19T04:46:29.618Z,22.39
2023-04-19T04:47:29.654Z,22.40
2023-04-19T04:48:29.692Z,22.40
2023-04-19T04:49:29.729Z,22.40
2023-04-19T04:50:29.788Z,22.39
2023-04-19T04:51:29.813Z,22.42
2023-04-19T04:52:29.838Z,22.41
2023-04-19T04:53:29.883Z,22.42
2023-04-19T04:54:29.923Z,22.42
2023-04-19T04:55:29.942Z,22.43
2023-04-19T04:56:30.018Z,22.44
2023-04-19T04:57:30.421Z,22.43
2023-04-19T04:58:30.060Z,22.44
2023-04-19T04:59:30.082Z,22.43
2023-04-19T05:00:30.119Z,22.43
2023-04-19T05:01:30.274Z,22.43
2023-04-19T05:02:30.790Z,22.43
2023-04-19T05:03:30.285Z,22.44
2023-04-19T05:04:30.329Z,22.45
2023-04-19T05:05:30.335Z,22.45
2023-04-19T05:06:30.346Z,22.45
2023-04-19T05:07:30.372Z,22.44
2023-04-19T05:08:30.411Z,22.43
2023-04-19T05:09:30.465Z,22.43
2023-04-19T05:10:30.497Z,22.41
2023-04-19T05:11:30.528Z,22.39
2023-04-19T05:12:30.598Z,22.39
2023-04-19T05:13:30.606Z,22.38
2023-04-19T05:14:30.648Z,22.38
2023-04-19T05:15:30.689Z,22.38
2023-04-19T05:16:30.789Z,22.39
2023-04-19T05:17:31.582Z,22.38
2023-04-19T05:18:30.802Z,22.38
2023-04-19T05:19:30.836Z,22.37
2023-04-19T05:20:30.887Z,22.37
2023-04-19T05:21:31.114Z,22.37
2023-04-19T05:22:30.959Z,22.36
2023-04-19T05:23:30.999Z,22.36
2023-04-19T05:24:31.040Z,22.36
2023-04-19T05:25:31.095Z,22.37
2023-04-19T05:26:31.133Z,22.38
2023-04-19T05:27:31.172Z,22.38
2023-04-19T05:28:31.221Z,22.38
2023-04-19T05:29:31.247Z,22.38
2023-04-19T05:30:31.288Z,22.37
2023-04-19T05:31:31.405Z,22.38
2023-04-19T05:32:31.404Z,22.39
2023-04-19T05:33:31.462Z,22.40
2023-04-19T05:34:31.469Z,22.41
2023-04-19T05:35:31.621Z,22.41
2023-04-19T05:36:31.538Z,22.41
2023-04-19T05:37:31.589Z,22.41
2023-04-19T05:38:31.622Z,22.42
2023-04-19T05:39:31.726Z,22.42
2023-04-19T05:40:32.129Z,22.43
2023-04-19T05:41:31.741Z,22.43
2023-04-19T05:42:31.781Z,22.44
2023-04-19T05:43:31.827Z,22.45
2023-04-19T05:44:31.867Z,22.43
2023-04-19T05:45:32.128Z,22.42
2023-04-19T05:46:32.152Z,22.40
2023-04-19T05:47:32.290Z,22.39
2023-04-19T05:48:32.085Z,22.40
2023-04-19T05:49:32.103Z,22.39
2023-04-19T05:50:32.123Z,22.38
2023-04-19T05:51:32.223Z,22.39
2023-04-19T05:52:32.633Z,22.41
2023-04-19T05:53:32.637Z,22.43
2023-04-19T05:54:32.321Z,22.45
2023-04-19T05:55:32.337Z,22.47
2023-04-19T05:56:32.371Z,22.50
2023-04-19T05:57:32.396Z,22.52
2023-04-19T05:58:32.678Z,22.53
2023-04-19T05:59:32.680Z,22.56
2023-04-19T06:00:32.510Z,22.60
2023-04-19T06:01:32.524Z,22.65
2023-04-19T06:02:32.614Z,22.69
2023-04-19T06:03:32.723Z,22.74
2023-04-19T06:04:33.327Z,22.78
2023-04-19T06:05:32.650Z,22.82
2023-04-19T06:06:32.570Z,22.83
2023-04-19T06:07:42.743Z,22.86
2023-04-19T06:08:33.565Z,22.88
2023-04-19T06:09:32.560Z,22.90
2023-04-19T06:10:41.218Z,22.93
2023-04-19T06:11:42.926Z,22.96
2023-04-19T06:12:32.479Z,22.98
2023-04-19T06:13:32.479Z,23.00
2023-04-19T06:14:32.636Z,23.02
2023-04-19T06:15:32.443Z,23.04
2023-04-19T06:16:32.513Z,23.06
2023-04-19T06:17:32.409Z,23.09
2023-04-19T06:18:32.419Z,23.10
2023-04-19T06:19:32.638Z,23.12
2023-04-19T06:20:32.417Z,23.14
2023-04-19T06:21:33.419Z,23.17
2023-04-19T06:22:32.380Z,23.18
2023-04-19T06:23:32.379Z,23.20
2023-04-19T06:24:33.735Z,23.21
2023-04-19T06:25:32.693Z,23.22
2023-04-19T06:26:32.318Z,23.24
2023-04-19T06:27:32.284Z,23.25
2023-04-19T06:28:32.372Z,23.26
2023-04-19T06:29:32.287Z,23.27
2023-04-19T06:30:32.641Z,23.26
2023-04-19T06:31:32.319Z,23.28
2023-04-19T06:32:32.231Z,23.27
2023-04-19T06:33:32.238Z,23.28
2023-04-19T06:34:32.218Z,23.29
2023-04-19T06:35:32.197Z,23.30
2023-04-19T06:36:32.185Z,23.31
2023-04-19T06:37:32.204Z,23.32
2023-04-19T06:38:32.172Z,23.32
2023-04-19T06:39:33.204Z,23.33
2023-04-19T06:40:32.113Z,23.34
2023-04-19T06:41:33.084Z,23.34
2023-04-19T06:42:32.077Z,23.35
2023-04-19T06:43:32.182Z,23.35
2023-04-19T06:44:32.204Z,23.36
2023-04-19T06:45:32.701Z,23.37
2023-04-19T06:46:32.593Z,23.36
2023-04-19T06:47:34.727Z,23.38
2023-04-19T06:48:32.323Z,23.38
2023-04-19T06:49:32.319Z,23.38
2023-04-19T06:50:32.682Z,23.38
2023-04-19T06:51:32.473Z,23.36
2023-04-19T06:52:32.506Z,23.35
2023-04-19T06:53:32.584Z,23.33
2023-04-19T06:54:32.662Z,23.31
2023-04-19T06:55:32.719Z,23.29
2023-04-19T06:56:32.647Z,23.28
2023-04-19T06:57:32.656Z,23.26
2023-04-19T06:58:34.437Z,23.24
2023-04-19T06:59:32.665Z,23.23
2023-04-19T07:00:33.159Z,23.21
2023-04-19T07:01:32.667Z,23.19
2023-04-19T07:02:32.709Z,23.17
2023-04-19T07:03:32.812Z,23.17
2023-04-19T07:04:32.782Z,23.16
2023-04-19T07:05:32.602Z,23.14
2023-04-19T07:06:32.674Z,23.14
2023-04-19T07:07:34.038Z,23.12
2023-04-19T07:08:48.693Z,23.11
2023-04-19T07:09:32.706Z,23.10
2023-04-19T07:10:32.531Z,23.10
2023-04-19T07:11:32.655Z,23.09
2023-04-19T07:12:32.765Z,23.09
2023-04-19T07:13:32.533Z,23.09
2023-04-19T07:14:32.759Z,23.09
2023-04-19T07:15:32.514Z,23.08
2023-04-19T07:16:32.694Z,23.08
2023-04-19T07:17:32.500Z,23.08
2023-04-19T07:18:32.489Z,23.07
2023-04-19T07:19:32.455Z,23.08
2023-04-19T07:20:32.445Z,23.07
2023-04-19T07:21:32.658Z,23.06
2023-04-19T07:22:32.440Z,23.07
2023-04-19T07:23:32.667Z,23.07
2023-04-19T07:24:32.410Z,23.07
2023-04-19T07:25:32.442Z,23.06
2023-04-19T07:26:32.397Z,23.07
2023-04-19T07:27:32.668Z,23.06
2023-04-19T07:28:32.660Z,23.06
2023-04-19T07:29:32.354Z,23.04
2023-04-19T07:30:32.347Z,23.03
2023-04-19T07:31:32.346Z,23.04
2023-04-19T07:32:32.736Z,23.03
2023-04-19T07:33:33.059Z,23.03
2023-04-19T07:34:32.667Z,23.02
2023-04-19T07:35:32.375Z,23.02
2023-04-19T07:36:32.422Z,23.01
2023-04-19T07:37:32.553Z,23.02
2023-04-19T07:38:32.668Z,23.01
2023-04-19T07:39:32.570Z,23.02
2023-04-19T07:40:32.600Z,23.02
2023-04-19T07:41:32.680Z,23.02
2023-04-19T07:42:33.177Z,23.02
2023-04-19T07:43:33.749Z,23.01
2023-04-19T07:44:33.174Z,23.03
2023-04-19T07:45:32.787Z,23.01
2023-04-19T07:46:32.874Z,23.00
2023-04-19T07:47:32.825Z,23.00
2023-04-19T07:48:33.206Z,22.99
2023-04-19T07:49:32.784Z,22.99
2023-04-19T07:50:33.180Z,22.98
2023-04-19T07:51:32.921Z,22.98
2023-04-19T07:52:32.779Z,22.98
2023-04-19T07:53:32.774Z,22.98
2023-04-19T07:54:32.778Z,22.98
2023-04-19T07:55:33.171Z,22.99
2023-04-19T07:56:41.640Z,22.99
2023-04-19T07:57:34.167Z,22.98
2023-04-19T07:58:32.768Z,22.98
2023-04-19T07:59:33.167Z,22.99
2023-04-19T08:00:32.766Z,22.99
2023-04-19T08:01:32.998Z,23.00
2023-04-19T08:02:32.847Z,22.99
2023-04-19T08:03:32.973Z,23.00
2023-04-19T08:04:33.479Z,23.01
2023-04-19T08:05:33.297Z,23.02
2023-04-19T08:06:32.777Z,23.02
2023-04-19T08:07:33.176Z,23.02
2023-04-19T08:08:34.080Z,23.02
2023-04-19T08:09:32.831Z,23.02
2023-04-19T08:10:32.837Z,23.03
2023-04-19T08:11:32.840Z,23.03
2023-04-19T08:12:40.567Z,23.03
2023-04-19T08:13:32.837Z,23.01
2023-04-19T08:14:40.609Z,23.01
2023-04-19T08:16:59.226Z,23.00
2023-04-19T08:17:41.410Z,22.98
2023-04-19T08:18:32.836Z,22.98
2023-04-19T08:19:32.784Z,22.99
2023-04-19T08:20:32.769Z,23.00
2023-04-19T08:21:40.525Z,23.00
2023-04-19T08:22:32.786Z,23.00
2023-04-19T08:24:31.738Z,23.02
2023-04-19T08:25:33.183Z,23.03
2023-04-19T08:26:32.726Z,23.03
2023-04-19T08:27:32.720Z,23.03
2023-04-19T08:28:32.731Z,23.03
2023-04-19T08:29:33.579Z,23.04
2023-04-19T08:30:32.678Z,23.03
2023-04-19T08:31:32.729Z,23.04
2023-04-19T08:32:32.712Z,23.04
2023-04-19T08:33:32.678Z,23.04
2023-04-19T08:34:32.684Z,23.04
2023-04-19T08:35:32.688Z,23.03
2023-04-19T08:36:41.209Z,23.04
2023-04-19T08:37:32.645Z,23.05
2023-04-19T08:38:32.621Z,23.05
2023-04-19T08:39:33.932Z,23.07
2023-04-19T08:40:32.715Z,23.08
2023-04-19T08:41:32.597Z,23.09
2023-04-19T08:42:36.914Z,23.09
2023-04-19T08:43:33.202Z,23.08
2023-04-19T08:44:36.837Z,23.08
2023-04-19T08:45:32.832Z,23.08
2023-04-19T08:46:32.876Z,23.07
2023-04-19T08:47:34.320Z,23.05
2023-04-19T08:49:32.817Z,23.05
2023-04-19T08:50:38.835Z,23.06
2023-04-19T08:51:32.801Z,23.06
2023-04-19T08:52:35.463Z,23.06
2023-04-19T08:53:32.785Z,23.04
2023-04-19T08:54:32.783Z,23.06
2023-04-19T08:55:33.201Z,23.07
2023-04-19T08:56:35.712Z,23.08
2023-04-19T08:57:32.761Z,23.10
2023-04-19T08:58:45.818Z,23.10
2023-04-19T08:59:32.756Z,23.10
2023-04-19T09:00:33.256Z,23.12
2023-04-19T09:01:35.980Z,23.12
2023-04-19T09:02:32.965Z,23.12
2023-04-19T09:03:40.799Z,23.12
2023-04-19T09:04:37.068Z,23.12
2023-04-19T09:05:33.456Z,23.11
2023-04-19T09:06:32.847Z,23.12
2023-04-19T09:07:34.230Z,23.12
2023-04-19T09:08:32.831Z,23.12
2023-04-19T09:09:36.985Z,23.13
2023-04-19T09:10:32.866Z,23.12
2023-04-19T09:11:32.850Z,23.12
2023-04-19T09:12:33.195Z,23.12
2023-04-19T09:13:32.835Z,23.12
2023-04-19T09:14:32.827Z,23.13
2023-04-19T09:15:33.850Z,23.13
2023-04-19T09:16:33.002Z,23.14
2023-04-19T09:17:32.863Z,23.14
2023-04-19T09:18:35.837Z,23.14
2023-04-19T09:19:32.809Z,23.14
2023-04-19T09:20:33.205Z,23.14
2023-04-19T09:21:32.762Z,23.14
2023-04-19T09:22:32.782Z,23.16
2023-04-19T09:23:32.748Z,23.17
2023-04-19T09:24:46.392Z,23.18
2023-04-19T09:25:49.186Z,23.18
2023-04-19T09:26:32.708Z,23.19
2023-04-19T09:27:32.697Z,23.20
2023-04-19T09:28:32.719Z,23.22
2023-04-19T09:29:32.677Z,23.23
2023-04-19T09:30:40.280Z,23.23
2023-04-19T09:31:48.145Z,23.24
2023-04-19T09:32:32.773Z,23.24
2023-04-19T09:33:32.655Z,23.27
2023-04-19T09:34:32.632Z,23.27
2023-04-19T09:35:32.802Z,23.28
2023-04-19T09:36:32.709Z,23.28
2023-04-19T09:37:57.311Z,23.29
2023-04-19T09:38:33.168Z,23.43
2023-04-19T09:39:32.586Z,23.36
2023-04-19T09:40:32.567Z,23.36
2023-04-19T09:41:32.713Z,23.37
2023-04-19T09:42:54.460Z,23.37
2023-04-19T09:44:52.944Z,23.37
2023-04-19T09:45:32.500Z,23.36
2023-04-19T09:46:32.767Z,23.35
2023-04-19T09:47:32.493Z,23.36
2023-04-19T09:48:32.611Z,23.35
2023-04-19T09:50:32.042Z,23.34
2023-04-19T09:51:32.708Z,23.34
2023-04-19T09:52:32.375Z,23.35
2023-04-19T09:53:32.360Z,23.33
2023-04-19T09:54:32.345Z,23.32
2023-04-19T09:55:41.334Z,23.33
2023-04-19T09:56:32.341Z,23.32
2023-04-19T09:57:32.298Z,23.32
2023-04-19T09:58:46.254Z,23.33
2023-04-19T09:59:32.712Z,23.31
2023-04-19T10:00:36.158Z,23.32
2023-04-19T10:01:32.291Z,23.31
2023-04-19T10:02:32.429Z,23.31
2023-04-19T10:03:32.308Z,23.31
2023-04-19T10:05:31.267Z,23.32
2023-04-19T10:06:46.266Z,23.33
2023-04-19T10:07:32.225Z,23.32
2023-04-19T10:08:32.161Z,23.32
2023-04-19T10:09:34.066Z,23.34
2023-04-19T10:10:41.707Z,23.35
2023-04-19T10:11:32.844Z,23.35
2023-04-19T10:12:58.393Z,23.35
2023-04-19T10:13:32.646Z,23.35
2023-04-19T10:14:32.093Z,23.35
2023-04-19T10:15:47.230Z,23.36
2023-04-19T10:16:32.468Z,23.36
2023-04-19T10:17:32.556Z,23.36
2023-04-19T10:18:32.379Z,23.37
2023-04-19T10:19:32.007Z,23.39
2023-04-19T10:20:32.300Z,23.39
2023-04-19T10:21:31.985Z,23.40
2023-04-19T10:22:31.964Z,23.41
2023-04-19T10:23:31.947Z,23.42
2023-04-19T10:24:31.930Z,23.43
2023-04-19T10:25:32.248Z,23.44
2023-04-19T10:26:31.901Z,23.46
2023-04-19T10:27:31.882Z,23.47
2023-04-19T10:28:31.873Z,23.48
2023-04-19T10:29:31.863Z,23.49
2023-04-19T10:30:32.728Z,23.51
2023-04-19T10:31:31.858Z,23.53
2023-04-19T10:32:31.824Z,23.55
2023-04-19T10:33:31.828Z,23.56
2023-04-19T10:34:31.773Z,23.55
2023-04-19T10:35:32.229Z,23.55
2023-04-19T10:36:31.765Z,23.53
2023-04-19T10:37:31.732Z,23.52
2023-04-19T10:38:31.706Z,23.50
2023-04-19T10:39:31.688Z,23.49
2023-04-19T10:40:31.661Z,23.48
2023-04-19T10:41:31.644Z,23.48
2023-04-19T10:42:31.621Z,23.47
2023-04-19T10:43:31.606Z,23.48
2023-04-19T10:44:31.592Z,23.47
2023-04-19T10:45:31.568Z,23.48
2023-04-19T10:46:31.606Z,23.47
2023-04-19T10:47:31.754Z,23.47
2023-04-19T10:48:31.524Z,23.45
2023-04-19T10:49:31.509Z,23.46
2023-04-19T10:50:31.734Z,23.46
2023-04-19T10:51:31.496Z,23.45
2023-04-19T10:52:31.543Z,23.47
2023-04-19T10:53:31.442Z,23.47
2023-04-19T10:54:31.664Z,23.47
2023-04-19T10:55:31.409Z,23.48
2023-04-19T10:56:31.748Z,23.48
2023-04-19T10:57:31.389Z,23.49
2023-04-19T10:58:31.377Z,23.49
2023-04-19T10:59:31.507Z,23.49
2023-04-19T11:00:31.380Z,23.51
2023-04-19T11:01:31.414Z,23.51
2023-04-19T11:02:31.859Z,23.50
2023-04-19T11:03:31.532Z,23.50
2023-04-19T11:04:31.535Z,23.50
2023-04-19T11:05:31.375Z,23.51
2023-04-19T11:06:31.391Z,23.52
2023-04-19T11:07:31.376Z,23.52
2023-04-19T11:08:31.447Z,23.53
2023-04-19T11:09:31.383Z,23.54
2023-04-19T11:10:31.375Z,23.54
2023-04-19T11:11:31.371Z,23.54
2023-04-19T11:12:31.361Z,23.54
2023-04-19T11:13:31.352Z,23.54
2023-04-19T11:14:31.352Z,23.54
2023-04-19T11:15:31.354Z,23.54
2023-04-19T11:16:45.116Z,23.55
2023-04-19T11:17:31.960Z,23.53
2023-04-19T11:18:31.327Z,23.54
2023-04-19T11:19:31.297Z,23.53
2023-04-19T11:20:31.286Z,23.52
2023-04-19T11:21:31.266Z,23.50
2023-04-19T11:22:31.252Z,23.48
2023-04-19T11:23:31.231Z,23.46
2023-04-19T11:24:31.385Z,23.45
2023-04-19T11:25:31.200Z,23.42
2023-04-19T11:26:31.208Z,23.39
2023-04-19T11:27:31.175Z,23.37
2023-04-19T11:28:31.140Z,23.35
2023-04-19T11:29:31.123Z,23.33
2023-04-19T11:30:31.121Z,23.30
2023-04-19T11:31:31.288Z,23.29
2023-04-19T11:32:31.109Z,23.27
2023-04-19T11:33:31.048Z,23.26
2023-04-19T11:34:31.021Z,23.24
2023-04-19T11:35:31.253Z,23.24
2023-04-19T11:36:30.989Z,23.23
2023-04-19T11:37:30.977Z,23.21
2023-04-19T11:38:30.957Z,23.19
2023-04-19T11:39:30.948Z,23.19
2023-04-19T11:40:30.985Z,23.18
2023-04-19T11:41:30.947Z,23.17
2023-04-19T11:42:30.970Z,23.16
2023-04-19T11:43:30.973Z,23.16
2023-04-19T11:44:31.037Z,23.15
2023-04-19T11:45:34.511Z,23.15
2023-04-19T11:46:31.777Z,23.14
2023-04-19T11:47:31.377Z,23.14
2023-04-19T11:48:31.331Z,23.13
2023-04-19T11:49:31.364Z,23.13
2023-04-19T11:50:31.411Z,23.11
2023-04-19T11:51:31.444Z,23.11
2023-04-19T11:52:31.477Z,23.10
2023-04-19T11:53:31.759Z,23.09
2023-04-19T11:54:31.564Z,23.09
2023-04-19T11:55:31.600Z,23.08
2023-04-19T11:56:31.804Z,23.07
2023-04-19T11:57:31.684Z,23.06
2023-04-19T11:58:31.700Z,23.05
2023-04-19T11:59:31.773Z,23.05
2023-04-19T12:00:31.802Z,23.04
2023-04-19T12:01:32.287Z,23.03
2023-04-19T12:02:32.004Z,23.02
2023-04-19T12:03:32.098Z,23.01
2023-04-19T12:04:32.140Z,23.01
2023-04-19T12:05:32.145Z,23.00
2023-04-19T12:06:32.261Z,22.99
2023-04-19T12:07:31.912Z,22.98
2023-04-19T12:08:31.959Z,22.97
2023-04-19T12:09:31.984Z,22.96
2023-04-19T12:10:31.988Z,22.96
2023-04-19T12:11:32.265Z,22.95
2023-04-19T12:12:32.089Z,22.94
2023-04-19T12:13:32.072Z,22.95
2023-04-19T12:14:32.086Z,22.94
2023-04-19T12:15:32.104Z,22.95
2023-04-19T12:16:32.296Z,22.94
2023-04-19T12:17:32.179Z,22.94
2023-04-19T12:18:32.143Z,22.94
2023-04-19T12:19:32.159Z,22.93
2023-04-19T12:20:32.165Z,22.94
2023-04-19T12:21:32.167Z,22.93
2023-04-19T12:22:32.159Z,22.93
2023-04-19T12:23:32.191Z,22.92
2023-04-19T12:24:32.158Z,22.91
2023-04-19T12:25:32.170Z,22.91
2023-04-19T12:26:32.193Z,22.92
2023-04-19T12:27:32.196Z,22.92
2023-04-19T12:28:32.231Z,22.91
2023-04-19T12:29:32.188Z,22.90
2023-04-19T12:30:32.200Z,22.88
2023-04-19T12:31:32.253Z,22.88
2023-04-19T12:32:32.330Z,22.87
2023-04-19T12:33:32.178Z,22.86
2023-04-19T12:34:32.272Z,22.85
2023-04-19T12:35:32.164Z,22.84
2023-04-19T12:36:32.163Z,22.84
2023-04-19T12:37:32.276Z,22.83
2023-04-19T12:38:32.160Z,22.82
2023-04-19T12:39:32.175Z,22.82
2023-04-19T12:40:32.179Z,22.81
2023-04-19T12:41:32.162Z,22.80
2023-04-19T12:42:32.276Z,22.79
2023-04-19T12:43:32.164Z,22.78
2023-04-19T12:44:32.280Z,22.76
2023-04-19T12:45:33.384Z,22.76
2023-04-19T12:46:32.343Z,22.75
2023-04-19T12:47:32.355Z,22.75
2023-04-19T12:48:32.262Z,22.75
2023-04-19T12:49:32.258Z,22.74
2023-04-19T12:50:32.257Z,22.73
2023-04-19T12:51:32.377Z,22.73
2023-04-19T12:52:32.251Z,22.72
2023-04-19T12:53:32.232Z,22.72
2023-04-19T12:54:32.205Z,22.72
2023-04-19T12:55:32.197Z,22.71
2023-04-19T12:56:32.187Z,22.70
2023-04-19T12:57:32.280Z,22.71
2023-04-19T12:58:32.173Z,22.70